createdAt,value
2018-06-17T00:01:33.640Z,10.00
2018-06-17T00:04:02.022Z,9.90
2018-06-17T00:06:28.975Z,9.90
2018-06-17T00:08:55.827Z,9.90
2018-06-17T00:11:22.979Z,9.80
2018-06-17T00:13:50.544Z,9.80
2018-06-17T00:16:17.392Z,9.70
2018-06-17T00:18:44.243Z,9.70
2018-06-17T00:21:11.021Z,9.70
2018-06-17T00:23:39.372Z,9.50
2018-06-17T00:26:06.326Z,9.60
2018-06-17T00:28:33.480Z,9.50
2018-06-17T00:31:00.329Z,9.50
2018-06-17T00:33:27.179Z,9.40
2018-06-17T00:36:01.195Z,9.40
2018-06-17T00:38:28.038Z,9.20
2018-06-17T00:40:54.989Z,9.10
2018-06-17T00:43:21.944Z,9.00
2018-06-17T00:45:49.200Z,9.00
2018-06-17T00:48:15.905Z,9.00
2018-06-17T00:50:43.616Z,8.90
2018-06-17T00:53:10.874Z,8.90
2018-06-17T00:55:37.726Z,8.90
2018-06-17T00:58:11.938Z,8.80
2018-06-17T01:00:38.787Z,8.80
2018-06-17T01:03:12.903Z,8.80
2018-06-17T01:05:39.958Z,8.80
2018-06-17T01:08:07.317Z,8.80
2018-06-17T01:10:34.168Z,8.80
2018-06-17T01:13:01.015Z,8.80
2018-06-17T01:15:28.069Z,8.70
2018-06-17T01:17:55.021Z,8.60
2018-06-17T01:20:21.974Z,8.60
2018-06-17T01:22:48.922Z,8.60
2018-06-17T01:25:16.081Z,8.60
2018-06-17T01:27:42.928Z,8.50
2018-06-17T01:30:09.773Z,8.50
2018-06-17T01:32:37.874Z,8.50
2018-06-17T01:35:04.704Z,8.50
2018-06-17T01:37:31.556Z,8.60
2018-06-17T01:39:59.632Z,8.70
2018-06-17T01:42:26.790Z,8.70
2018-06-17T01:44:53.738Z,8.80
2018-06-17T01:47:20.687Z,8.90
2018-06-17T01:49:47.638Z,8.90
2018-06-17T01:52:14.900Z,9.00
2018-06-17T01:54:41.746Z,9.00
2018-06-17T01:57:08.700Z,9.00
2018-06-17T01:59:35.958Z,8.90
2018-06-17T02:02:02.912Z,8.90
2018-06-17T02:04:48.892Z,8.90
2018-06-17T02:07:30.684Z,8.90
2018-06-17T02:10:12.474Z,9.00
2018-06-17T02:12:39.733Z,9.00
2018-06-17T02:15:06.581Z,9.00
2018-06-17T02:17:33.430Z,9.10
2018-06-17T02:20:00.177Z,9.10
2018-06-17T02:22:27.129Z,9.10
2018-06-17T02:24:54.283Z,9.20
2018-06-17T02:27:21.235Z,9.20
2018-06-17T02:29:48.287Z,9.30
2018-06-17T02:32:15.245Z,9.40
2018-06-17T02:34:42.293Z,9.60
2018-06-17T02:37:09.554Z,9.80
2018-06-17T02:39:36.505Z,10.00
2018-06-17T02:42:03.351Z,10.10
2018-06-17T02:44:30.407Z,10.30
2018-06-17T02:49:54.547Z,10.50
2018-06-17T02:52:38.284Z,10.70
2018-06-17T02:55:05.186Z,10.80
2018-06-17T02:57:32.184Z,10.80
2018-06-17T02:59:59.137Z,10.90
2018-06-17T03:02:26.085Z,10.90
2018-06-17T03:04:53.043Z,11.00
2018-06-17T03:07:20.397Z,11.10
2018-06-17T03:09:47.347Z,11.20
2018-06-17T03:12:14.183Z,11.30
2018-06-17T03:14:41.149Z,11.40
2018-06-17T03:17:08.098Z,11.50
2018-06-17T03:19:34.848Z,11.80
2018-06-17T03:22:01.695Z,12.00
2018-06-17T03:24:28.646Z,12.10
2018-06-17T03:27:15.246Z,12.20
2018-06-17T03:30:01.127Z,12.30
2018-06-17T03:32:27.974Z,12.30
2018-06-17T03:34:54.927Z,12.40
2018-06-17T03:37:21.774Z,12.30
2018-06-17T03:39:48.623Z,12.40
2018-06-17T03:42:15.575Z,12.50
2018-06-17T03:44:42.422Z,12.50
2018-06-17T03:47:09.374Z,12.60
2018-06-17T03:49:36.528Z,12.60
2018-06-17T03:52:03.382Z,12.70
2018-06-17T03:54:30.638Z,12.90
2018-06-17T03:56:57.588Z,13.10
2018-06-17T03:59:24.540Z,13.30
2018-06-17T04:01:51.374Z,13.50
2018-06-17T04:04:18.236Z,13.60
2018-06-17T04:06:45.085Z,13.80
2018-06-17T04:09:12.038Z,13.90
2018-06-17T04:11:38.883Z,13.90
2018-06-17T04:14:06.245Z,14.10
2018-06-17T04:16:33.194Z,14.20
2018-06-17T04:19:00.145Z,14.40
2018-06-17T04:21:27.096Z,14.50
2018-06-17T04:23:53.949Z,14.90
2018-06-17T04:26:20.782Z,15.30
2018-06-17T04:28:47.552Z,15.80
2018-06-17T04:31:14.902Z,16.20
2018-06-17T04:33:41.748Z,16.90
2018-06-17T04:36:09.521Z,17.90
2018-06-17T04:38:36.675Z,17.90
2018-06-17T04:41:03.626Z,18.80
2018-06-17T04:43:30.578Z,21.30
2018-06-17T04:45:57.529Z,23.50
2018-06-17T04:48:24.531Z,26.00
2018-06-17T04:50:52.248Z,28.60
2018-06-17T04:53:19.201Z,28.50
2018-06-17T04:55:46.149Z,27.40
2018-06-17T04:58:13.104Z,27.00
2018-06-17T05:00:39.950Z,27.90
2018-06-17T05:03:06.906Z,29.80
2018-06-17T05:05:34.056Z,30.10
2018-06-17T05:08:00.911Z,29.00
2018-06-17T05:10:28.051Z,28.50
2018-06-17T05:12:54.807Z,29.10
2018-06-17T05:15:21.553Z,29.80
2018-06-17T05:17:48.512Z,30.00
2018-06-17T05:20:15.455Z,29.70
2018-06-17T05:22:42.405Z,30.70
2018-06-17T05:25:09.358Z,30.70
2018-06-17T05:27:37.435Z,27.20
2018-06-17T05:30:04.283Z,27.10
2018-06-17T05:32:31.232Z,27.50
2018-06-17T05:34:58.187Z,27.90
2018-06-17T05:37:25.852Z,29.40
2018-06-17T05:39:52.810Z,29.40
2018-06-17T05:42:19.754Z,31.00
2018-06-17T05:44:46.705Z,32.80
2018-06-17T05:47:13.655Z,32.20
2018-06-17T05:49:41.325Z,31.40
2018-06-17T05:52:08.165Z,31.30
2018-06-17T05:54:35.020Z,31.30
2018-06-17T05:57:01.972Z,32.00
2018-06-17T05:59:28.720Z,34.10
2018-06-17T06:01:55.565Z,34.30
2018-06-17T06:04:22.824Z,34.60
2018-06-17T06:06:49.777Z,35.30
2018-06-17T06:09:16.732Z,33.60
2018-06-17T06:11:43.882Z,34.40
2018-06-17T06:14:10.728Z,35.30
2018-06-17T06:16:37.476Z,36.40
2018-06-17T06:19:04.430Z,35.90
2018-06-17T06:21:31.276Z,34.90
2018-06-17T06:23:58.228Z,35.40
2018-06-17T06:26:25.080Z,36.80
2018-06-17T06:28:52.027Z,36.80
2018-06-17T06:31:18.980Z,35.50
2018-06-17T06:33:45.930Z,36.70
2018-06-17T06:36:12.782Z,36.10
2018-06-17T06:38:40.337Z,35.30
2018-06-17T06:41:07.190Z,35.30
2018-06-17T06:43:34.142Z,33.20
2018-06-17T06:46:01.095Z,32.80
2018-06-17T06:48:27.830Z,34.40
2018-06-17T06:50:54.804Z,36.00
2018-06-17T06:53:21.641Z,35.00
2018-06-17T06:55:48.591Z,34.70
2018-06-17T06:58:15.438Z,33.00
2018-06-17T07:00:42.289Z,31.50
2018-06-17T07:03:21.314Z,30.90
2018-06-17T07:06:00.444Z,31.10
2018-06-17T07:08:48.167Z,31.30
2018-06-17T07:11:15.016Z,34.10
2018-06-17T07:13:41.966Z,33.10
2018-06-17T07:16:31.841Z,32.20
2018-06-17T07:18:58.793Z,30.80
2018-06-17T07:21:25.627Z,30.40
2018-06-17T07:23:53.135Z,32.80
2018-06-17T07:26:40.923Z,32.80
2018-06-17T07:29:19.854Z,33.40
2018-06-17T07:31:46.812Z,33.00
2018-06-17T07:34:13.755Z,32.40
2018-06-17T07:36:40.708Z,34.90
2018-06-17T07:39:08.478Z,31.30
2018-06-17T07:41:35.427Z,31.20
2018-06-17T07:44:02.380Z,30.90
2018-06-17T07:46:29.227Z,32.10
2018-06-17T07:48:56.076Z,34.30
2018-06-17T07:54:38.404Z,32.10
2018-06-17T07:57:05.334Z,31.00
2018-06-17T07:59:32.283Z,31.80
2018-06-17T08:01:59.235Z,33.20
2018-06-17T08:04:26.084Z,34.00
2018-06-17T08:06:52.938Z,34.30
2018-06-17T08:09:19.725Z,31.70
2018-06-17T08:11:47.450Z,32.80
2018-06-17T08:14:14.286Z,32.80
2018-06-17T08:16:41.148Z,33.80
2018-06-17T08:19:08.095Z,35.10
2018-06-17T08:21:35.049Z,34.70
2018-06-17T08:24:01.896Z,34.60
2018-06-17T08:26:28.849Z,34.60
2018-06-17T08:28:55.697Z,33.10
2018-06-17T08:31:22.648Z,33.50
2018-06-17T08:33:49.597Z,33.50
2018-06-17T08:36:16.458Z,33.70
2018-06-17T08:38:43.293Z,33.40
2018-06-17T08:41:10.251Z,33.00
2018-06-17T08:43:36.993Z,33.00
2018-06-17T08:46:03.953Z,30.50
2018-06-17T08:48:30.894Z,30.70
2018-06-17T08:50:57.737Z,29.90
2018-06-17T08:53:24.491Z,29.40
2018-06-17T08:55:51.438Z,29.00
2018-06-17T08:58:18.392Z,29.00
2018-06-17T09:00:45.234Z,28.40
2018-06-17T09:03:12.192Z,28.10
2018-06-17T09:05:39.040Z,28.00
2018-06-17T09:08:05.887Z,27.70
2018-06-17T09:10:32.737Z,26.50
2018-06-17T09:12:59.693Z,25.30
2018-06-17T09:15:26.640Z,26.10
2018-06-17T09:17:53.590Z,26.90
2018-06-17T09:20:20.543Z,28.20
2018-06-17T09:22:47.493Z,27.90
2018-06-17T09:25:14.349Z,28.20
2018-06-17T09:27:41.174Z,28.50
2018-06-17T09:30:08.139Z,28.50
2018-06-17T09:32:35.090Z,28.80
2018-06-17T09:35:01.943Z,27.60
2018-06-17T09:37:28.787Z,26.80
2018-06-17T09:39:55.636Z,27.40
2018-06-17T09:42:22.690Z,25.90
2018-06-17T09:44:49.540Z,26.40
2018-06-17T09:47:16.496Z,25.60
2018-06-17T09:49:44.771Z,26.00
2018-06-17T09:52:11.615Z,26.00
2018-06-17T09:54:38.569Z,25.50
2018-06-17T09:57:05.314Z,24.90
2018-06-17T09:59:32.165Z,25.00
2018-06-17T10:01:59.014Z,25.40
2018-06-17T10:04:25.862Z,26.20
2018-06-17T10:06:52.704Z,26.70
2018-06-17T10:09:19.546Z,27.20
2018-06-17T10:11:46.413Z,27.50
2018-06-17T10:14:13.362Z,27.50
2018-06-17T10:16:40.208Z,27.00
2018-06-17T10:19:07.267Z,26.30
2018-06-17T10:21:34.212Z,26.20
2018-06-17T10:24:01.166Z,26.40
2018-06-17T10:26:28.116Z,26.00
2018-06-17T10:28:54.961Z,25.40
2018-06-17T10:31:21.810Z,25.50
2018-06-17T10:33:48.661Z,25.60
2018-06-17T10:36:15.508Z,25.60
2018-06-17T10:38:42.356Z,25.90
2018-06-17T10:41:09.204Z,25.40
2018-06-17T10:43:36.996Z,25.10
2018-06-17T10:46:04.440Z,25.10
2018-06-17T10:48:31.389Z,25.70
2018-06-17T10:50:58.239Z,26.10
2018-06-17T10:53:25.089Z,26.20
2018-06-17T10:55:52.109Z,26.30
2018-06-17T10:58:18.784Z,26.30
2018-06-17T11:00:45.640Z,25.70
2018-06-17T11:03:12.587Z,25.10
2018-06-17T11:05:39.561Z,24.10
2018-06-17T11:08:07.304Z,24.10
2018-06-17T11:10:34.260Z,24.10
2018-06-17T11:13:01.121Z,24.80
2018-06-17T11:15:27.952Z,24.90
2018-06-17T11:17:54.904Z,25.20
2018-06-17T11:20:21.855Z,25.70
2018-06-17T11:22:48.704Z,25.70
2018-06-17T11:25:15.550Z,25.30
2018-06-17T11:27:42.507Z,24.90
2018-06-17T11:30:09.456Z,24.70
2018-06-17T11:32:36.408Z,24.30
2018-06-17T11:35:03.357Z,24.30
2018-06-17T11:37:30.308Z,24.50
2018-06-17T11:39:57.258Z,23.90
2018-06-17T11:42:24.108Z,24.00
2018-06-17T11:44:50.968Z,23.90
2018-06-17T11:47:18.009Z,23.70
2018-06-17T11:49:45.609Z,23.10
2018-06-17T11:52:12.673Z,23.00
2018-06-17T11:54:39.989Z,23.40
2018-06-17T11:57:07.143Z,23.70
2018-06-17T11:59:33.993Z,23.50
2018-06-17T12:02:00.948Z,23.30
2018-06-17T12:04:27.996Z,23.40
2018-06-17T12:06:54.951Z,23.40
2018-06-17T12:09:22.206Z,23.40
2018-06-17T12:11:49.156Z,23.30
2018-06-17T12:14:16.110Z,23.20
2018-06-17T12:16:43.160Z,23.20
2018-06-17T12:19:10.320Z,23.20
2018-06-17T12:21:37.265Z,23.80
2018-06-17T12:24:04.115Z,23.60
2018-06-17T12:26:31.067Z,23.20
2018-06-17T12:28:58.017Z,23.50
2018-06-17T12:31:24.871Z,23.60
2018-06-17T12:33:51.818Z,23.90
2018-06-17T12:36:18.772Z,24.20
2018-06-17T12:38:45.523Z,24.10
2018-06-17T12:41:12.465Z,23.40
2018-06-17T12:43:39.519Z,23.20
2018-06-17T12:46:06.377Z,23.00
2018-06-17T12:48:33.215Z,22.60
2018-06-17T12:51:00.270Z,22.50
2018-06-17T12:53:27.220Z,22.60
2018-06-17T12:55:54.171Z,22.80
2018-06-17T12:58:21.121Z,22.80
2018-06-17T13:00:47.975Z,22.80
2018-06-17T13:03:14.819Z,22.70
2018-06-17T13:05:41.772Z,22.70
2018-06-17T13:08:08.720Z,22.90
2018-06-17T13:10:35.570Z,23.00
2018-06-17T13:13:02.522Z,22.80
2018-06-17T13:15:29.473Z,22.70
2018-06-17T13:17:56.425Z,22.90
2018-06-17T13:20:23.272Z,23.00
2018-06-17T13:22:50.120Z,23.10
2018-06-17T13:25:16.971Z,23.20
2018-06-17T13:27:43.919Z,22.90
2018-06-17T13:30:10.768Z,22.80
2018-06-17T13:32:37.720Z,23.20
2018-06-17T13:35:04.671Z,23.30
2018-06-17T13:37:31.621Z,23.20
2018-06-17T13:39:59.293Z,22.80
2018-06-17T13:42:26.954Z,22.50
2018-06-17T13:44:53.907Z,22.50
2018-06-17T13:47:20.859Z,22.80
2018-06-17T13:49:47.812Z,22.60
2018-06-17T13:52:15.176Z,22.20
2018-06-17T13:54:42.119Z,22.20
2018-06-17T13:57:09.073Z,21.90
2018-06-17T13:59:36.432Z,21.60
2018-06-17T14:02:03.383Z,21.50
2018-06-17T14:04:30.233Z,21.20
2018-06-17T14:06:57.081Z,21.20
2018-06-17T14:09:23.932Z,21.30
2018-06-17T14:11:50.781Z,21.50
2018-06-17T14:14:17.523Z,21.50
2018-06-17T14:16:44.372Z,21.40
2018-06-17T14:19:11.324Z,21.30
2018-06-17T14:21:38.171Z,20.90
2018-06-17T14:24:05.022Z,20.90
2018-06-17T14:26:31.973Z,20.80
2018-06-17T14:28:58.819Z,20.60
2018-06-17T14:31:25.783Z,20.50
2018-06-17T14:33:52.826Z,20.50
2018-06-17T14:36:19.776Z,20.30
2018-06-17T14:38:46.725Z,20.40
2018-06-17T14:41:13.792Z,20.40
2018-06-17T14:43:57.414Z,20.30
2018-06-17T14:46:24.464Z,20.00
2018-06-17T14:48:58.931Z,19.70
2018-06-17T14:51:33.105Z,19.60
2018-06-17T14:54:00.155Z,19.60
2018-06-17T14:56:27.108Z,19.70
2018-06-17T14:58:54.113Z,19.60
2018-06-17T15:01:21.725Z,19.80
2018-06-17T15:03:48.637Z,19.80
2018-06-17T15:06:15.628Z,19.70
2018-06-17T15:08:43.545Z,19.70
2018-06-17T15:11:10.472Z,19.70
2018-06-17T15:13:38.875Z,19.60
2018-06-17T15:16:05.786Z,19.60
2018-06-17T15:18:32.757Z,19.40
2018-06-17T15:20:59.790Z,19.40
2018-06-17T15:23:27.630Z,19.20
2018-06-17T15:25:54.815Z,19.10
2018-06-17T15:28:22.073Z,19.10
2018-06-17T15:30:49.855Z,19.20
2018-06-17T15:33:32.963Z,19.20
2018-06-17T15:36:19.285Z,19.10
2018-06-17T15:38:49.276Z,18.40
2018-06-17T15:41:16.638Z,18.30
2018-06-17T15:43:44.725Z,18.10
2018-06-17T15:46:11.607Z,17.90
2018-06-17T15:48:38.413Z,17.70
2018-06-17T15:51:06.490Z,17.10
2018-06-17T15:53:34.360Z,16.80
2018-06-17T15:56:02.318Z,16.60
2018-06-17T15:58:29.595Z,16.60
2018-06-17T16:00:56.353Z,16.50
2018-06-17T16:03:23.288Z,16.30
2018-06-17T16:05:50.144Z,16.40
2018-06-17T16:08:17.195Z,16.30
2018-06-17T16:10:44.041Z,16.30
2018-06-17T16:13:27.928Z,16.40
2018-06-17T16:16:10.689Z,16.40
2018-06-17T16:18:55.548Z,16.50
2018-06-17T16:21:22.500Z,16.30
2018-06-17T16:23:49.451Z,16.20
2018-06-17T16:26:39.570Z,16.20
2018-06-17T16:29:15.585Z,16.10
2018-06-17T16:31:43.151Z,16.10
2018-06-17T16:34:10.102Z,15.90
2018-06-17T16:36:37.361Z,15.90
2018-06-17T16:39:04.212Z,15.80
2018-06-17T16:41:31.057Z,15.80
2018-06-17T16:43:58.010Z,15.70
2018-06-17T16:46:24.959Z,15.50
2018-06-17T16:48:51.810Z,15.50
2018-06-17T16:51:18.584Z,15.40
2018-06-17T16:54:01.779Z,15.30
2018-06-17T16:56:47.660Z,15.30
2018-06-17T16:59:29.858Z,15.10
2018-06-17T17:01:56.706Z,15.00
2018-06-17T17:04:23.559Z,14.90
2018-06-17T17:06:50.409Z,14.90
2018-06-17T17:09:17.227Z,14.80
2018-06-17T17:11:44.206Z,14.70
2018-06-17T17:14:11.318Z,14.70
2018-06-17T17:16:38.210Z,14.80
2018-06-17T17:19:05.059Z,14.90
2018-06-17T17:21:31.906Z,15.00
2018-06-17T17:23:58.650Z,15.20
2018-06-17T17:26:25.688Z,15.20
2018-06-17T17:28:54.202Z,15.40
2018-06-17T17:31:22.297Z,15.40
2018-06-17T17:36:58.236Z,15.20
2018-06-17T17:39:25.367Z,15.30
2018-06-17T17:41:52.201Z,15.10
2018-06-17T17:44:19.087Z,15.10
2018-06-17T17:46:46.145Z,15.00
2018-06-17T17:49:12.983Z,15.00
2018-06-17T17:51:39.834Z,15.00
2018-06-17T17:54:06.917Z,15.00
2018-06-17T17:56:33.791Z,14.80
2018-06-17T17:59:00.889Z,14.90
2018-06-17T18:01:27.657Z,15.00
2018-06-17T18:03:54.897Z,14.90
2018-06-17T18:06:22.154Z,14.80
2018-06-17T18:08:49.104Z,14.70
2018-06-17T18:11:16.099Z,14.70
2018-06-17T18:13:44.648Z,14.60
2018-06-17T18:16:11.798Z,14.50
2018-06-17T18:18:38.750Z,14.60
2018-06-17T18:21:06.418Z,14.60
2018-06-17T18:23:33.303Z,14.60
2018-06-17T18:26:16.520Z,14.60
2018-06-17T18:28:58.603Z,14.60
2018-06-17T18:31:25.637Z,14.70
2018-06-17T18:34:09.251Z,14.70
2018-06-17T18:36:37.059Z,14.90
2018-06-17T18:39:05.779Z,14.80
2018-06-17T18:41:32.803Z,14.80
2018-06-17T18:43:59.932Z,14.90
2018-06-17T18:46:27.228Z,14.80
2018-06-17T18:48:55.540Z,14.80
2018-06-17T18:51:22.656Z,14.80
2018-06-17T18:53:49.441Z,14.70
2018-06-17T18:56:16.923Z,14.80
2018-06-17T18:58:43.855Z,14.70
2018-06-17T19:01:11.460Z,14.70
2018-06-17T19:03:38.412Z,14.80
2018-06-17T19:06:05.362Z,14.70
2018-06-17T19:08:32.619Z,14.60
2018-06-17T19:11:15.230Z,14.60
2018-06-17T19:13:54.767Z,14.50
2018-06-17T19:16:42.286Z,14.40
2018-06-17T19:19:09.239Z,14.30
2018-06-17T19:21:36.086Z,14.20
2018-06-17T19:24:02.936Z,14.30
2018-06-17T19:26:29.785Z,14.20
2018-06-17T19:28:56.979Z,14.10
2018-06-17T19:31:24.631Z,14.10
2018-06-17T19:33:51.390Z,14.10
2018-06-17T19:36:18.164Z,14.10
2018-06-17T19:38:45.052Z,14.00
2018-06-17T19:41:11.962Z,14.00
2018-06-17T19:43:39.668Z,13.90
2018-06-17T19:46:06.527Z,13.90
2018-06-17T19:48:33.468Z,13.90
2018-06-17T19:51:21.944Z,13.90
2018-06-17T19:54:04.519Z,13.90
2018-06-17T19:56:47.226Z,13.90
2018-06-17T19:59:33.621Z,13.90
2018-06-17T20:02:00.476Z,13.90
2018-06-17T20:04:27.420Z,13.80
2018-06-17T20:06:54.473Z,13.80
2018-06-17T20:09:21.527Z,13.80
2018-06-17T20:11:49.487Z,13.80
2018-06-17T20:14:16.566Z,13.80
2018-06-17T20:16:43.516Z,13.70
2018-06-17T20:19:10.457Z,13.80
2018-06-17T20:21:37.357Z,13.80
2018-06-17T20:24:05.583Z,13.60
2018-06-17T20:26:32.437Z,13.60
2018-06-17T20:28:59.183Z,13.70
2018-06-17T20:31:26.235Z,13.70
2018-06-17T20:37:07.008Z,13.80
2018-06-17T20:39:49.820Z,13.70
2018-06-17T20:45:08.694Z,13.70
2018-06-17T20:47:36.468Z,13.70
2018-06-17T20:50:04.339Z,13.70
2018-06-17T20:52:31.289Z,13.70
2018-06-17T20:54:59.368Z,13.60
2018-06-17T20:57:26.230Z,13.60
2018-06-17T20:59:54.291Z,13.50
2018-06-17T21:02:21.345Z,13.50
2018-06-17T21:04:48.911Z,13.50
2018-06-17T21:07:16.430Z,13.50
2018-06-17T21:09:45.254Z,13.50
2018-06-17T21:12:13.053Z,13.40
2018-06-17T21:14:40.299Z,13.40
2018-06-17T21:17:08.744Z,13.40
2018-06-17T21:19:53.855Z,13.40
2018-06-17T21:22:35.848Z,13.30
2018-06-17T21:25:20.907Z,13.30
2018-06-17T21:27:48.373Z,13.30
2018-06-17T21:30:15.218Z,13.30
2018-06-17T21:32:42.068Z,13.30
2018-06-17T21:35:09.019Z,13.30
2018-06-17T21:37:35.976Z,13.30
2018-06-17T21:40:02.820Z,13.30
2018-06-17T21:42:29.772Z,13.30
2018-06-17T21:44:57.029Z,13.20
2018-06-17T21:47:23.777Z,13.30
2018-06-17T21:49:51.136Z,13.20
2018-06-17T21:52:18.090Z,13.20
2018-06-17T21:54:45.040Z,13.30
2018-06-17T21:57:11.889Z,13.20
2018-06-17T21:59:39.046Z,13.20
2018-06-17T22:02:07.224Z,13.20
2018-06-17T22:04:34.175Z,13.10
2018-06-17T22:07:01.399Z,13.20
2018-06-17T22:09:43.329Z,13.20
2018-06-17T22:12:26.345Z,13.30
2018-06-17T22:15:08.031Z,13.20
2018-06-17T22:17:50.130Z,13.20
2018-06-17T22:20:18.003Z,13.20
2018-06-17T22:22:44.850Z,13.30
2018-06-17T22:25:12.937Z,13.30
2018-06-17T22:27:39.775Z,13.30
2018-06-17T22:30:07.034Z,13.20
2018-06-17T22:32:34.291Z,13.30
2018-06-17T22:35:01.552Z,13.30
2018-06-17T22:37:28.706Z,13.30
2018-06-17T22:39:55.664Z,13.40
2018-06-17T22:42:22.508Z,13.40
2018-06-17T22:44:49.353Z,13.40
2018-06-17T22:47:16.718Z,13.40
2018-06-17T22:49:43.569Z,13.40
2018-06-17T22:52:11.644Z,13.50
2018-06-17T22:54:47.803Z,13.50
2018-06-17T22:57:15.172Z,13.50
2018-06-17T23:00:01.968Z,13.50
2018-06-17T23:02:47.447Z,13.60
2018-06-17T23:05:32.302Z,13.60
2018-06-17T23:08:19.232Z,13.60
2018-06-17T23:10:46.159Z,13.50
2018-06-17T23:13:13.010Z,13.50
2018-06-17T23:15:39.963Z,13.40
2018-06-17T23:18:07.221Z,13.40
2018-06-17T23:20:34.272Z,13.30
2018-06-17T23:23:01.431Z,13.20
2018-06-17T23:25:28.280Z,13.20
2018-06-17T23:27:55.231Z,13.20
2018-06-17T23:30:22.078Z,13.10
2018-06-17T23:32:48.929Z,13.00
2018-06-17T23:35:15.880Z,12.90
2018-06-17T23:37:42.650Z,12.80
2018-06-17T23:40:09.580Z,12.70
2018-06-17T23:42:36.938Z,12.70
2018-06-17T23:45:03.789Z,12.50
2018-06-17T23:47:47.929Z,12.50
2018-06-17T23:50:29.719Z,12.40
2018-06-17T23:53:14.988Z,12.20
2018-06-17T23:55:59.643Z,12.10
2018-06-17T23:58:26.596Z,11.90
